首页
METAR-TAF:

METAR-TAF

机场 :

莫伊国际机场

蒙巴萨, 肯尼亚

纬度: 04-02S, 经度: 039-37E, 海拔: 57米

当前天气观测

该预报发布于53分钟前的21:00 UTC
风速3节,风向东转东北
温度 27°C
湿度 89%
气压 1012 hPa
能见度10公里或以上
少量云层高于2200英尺

METAR: HKMO 172100Z 06003KT 9999 FEW022 27/25 Q1012 NOSIG

时间: 00:53 (21:53 UTC)

预报

预报有效从17日的 06点(UTC)到 18日的 12点(UTC)
风速5节,风向
能见度10公里或以上
散云层高于2200英尺
成为
从 17日的 09点(UTC)到 17日的 12点(UTC)
风速10节,风向
少量云层高于2600英尺, 积雨云.
成为
从 17日的 18点(UTC)到 17日的 21点(UTC)
风速5节,风向北转东北
少量云层高于2200英尺
成为
从 18日的 00点(UTC)到 18日的 06点(UTC)
风速节,风向
散云层高于2000英尺
成为
从 18日的 09点(UTC)到 18日的 12点(UTC)
风速10节,风向
少量云层高于2600英尺, 积雨云.
散云层高于2700英尺

TAF: HKMO 1706/1812 01005KT 9999 SCT022 / / BECMG 1709/1712 08010KT FEW026CB / / BECMG 1718/1721 02005KT FEW022 / / BECMG 1800/1806 00000KT SCT020 / / BECMG 1809/1812 09010KT FEW026CB SCT027

超过4000个机场的气象观测和天气预报(METAR&TAF报告)。

可查询的气象台以黄色和红色小点在地图上表示。

将鼠标移到小点上方,可查看气象台名称。

然后点击查看天气观测和预报。

如需切换地图:点击带黑十字的绿色按钮放大地图;点击带横线的绿色按钮缩小地图;或者点击绿色箭头查看邻近地区的地图。


METAR-TAF: